Bruk link Alternativ webside om du vil se statistikk,rapport,graf,analyse og mye mer.

Lynradar: storm image Ingen tordenbyger registrert..



Vårt webkamera mer informasjon My webcam


Kamera på Foreneset mer informasjon webcam on foreneset


Nedbørsradar  rain snow radar


Besøk vår andre værside:

Alternativ webside

iphone versjon

Nettbrett versjon

Foreneset
verstasjon



Ikke nødvendig med spesiell oppmerksomhet.    Det er ingen advarsler

Nære METAR rapporter

     
ENZV - Stavanger
oppdatert: 02-03-2021 01:20
Tåke, Overskyet  
Tåke, Overskyet  
   Vind: Nord 1.5 m/s
Vind: Nord 1.5 m/s
Temperatur: 6°C
Wind Chill: 5°C
Duggpunkt: 5°C
Fuktighet: 93%
Barometer: 1034 hPa
Skyer: Overskyet
Sikt: 0 km
Skydetaljer: Overskyet 61 m
ENZV 020020Z 36003KT 330V040 0250 R18/1000N R36/P2000N R11/P2000N FG VV002 06/05 Q1034
ENHD - Haugesund
oppdatert: 02-03-2021 01:20
Overskyet  
Overskyet  
   Vind: varierer 1 m/s
Vind: varierer 1 m/s
Temperatur: 5°C
Duggpunkt: 5°C
Fuktighet: 100%
Barometer: 1034 hPa
Skyer: Overskyet
Sikt: 7 km
Skydetaljer: Få Skyer 91.4 m,
Overskyet 1188.7 m
ENHD 020020Z AUTO VRB02KT 7000 FEW003/// OVC039/// 05/05 Q1034
ENBR - Bergen
oppdatert: 02-03-2021 01:20
Overskyet  
Overskyet  
   Vind: SØ 2.1 m/s
Vind: SØ 2.1 m/s
Temperatur: 5°C
Wind Chill: 3°C
Duggpunkt: 4°C
Fuktighet: 93%
Barometer: 1033 hPa
Skyer: Overskyet
Sikt: mer enn 10 km
Skydetaljer: Overskyet 1127.8 m
ENBR 020020Z 13004KT 9999 OVC037 05/04 Q1033 RMK WIND 1200FT 24010KT
ENCN - Kristiansand
oppdatert: 02-03-2021 01:20
Klart  
Klart  
   Vind: varierer 1.5 m/s
Vind: varierer 1.5 m/s
Temperatur: 3°C
Wind Chill: 2°C
Duggpunkt: 0°C
Fuktighet: 81%
Barometer: 1031 hPa
Skyer: Klart
Sikt: mer enn 10 km
Skydetaljer: Klart
ENCN 020020Z AUTO VRB03KT 9999 NCD 03/M00 Q1031
ENGM - Oslo
oppdatert: 02-03-2021 01:20
Klart  
Klart  
   Vind: NV 2.6 m/s
Vind: NV 2.6 m/s
Temperatur: 3°C
Wind Chill: 1°C
Duggpunkt: -3°C
Fuktighet: 65%
Barometer: 1026 hPa
Sikt: mer enn 10 km
Skydetaljer: Klart
ENGM 020020Z 32005KT 240V010 CAVOK 03/M03 Q1026
ENVA - Trondheim
oppdatert: 02-03-2021 01:20
For det meste skyet  
For det meste skyet  
   Vind: VSV 6.7 m/s
Vind: VSV 6.7 m/s
Temperatur: 3°C
Wind Chill: -2°C
Duggpunkt: 2°C
Fuktighet: 93%
Barometer: 1026 hPa
Skyer: For det meste skyet
Sikt: mer enn 10 km
Skydetaljer: Få Skyer 91.4 m,
Delvis Skyet 548.6 m,
For det meste skyet 1463 m
ENVA 020020Z 25013KT 9999 FEW003 SCT018 BKN048 03/02 Q1026 RMK WIND 670FT 27015KT
    

Script utviklet av  Saratoga-weather.org Tilrettelagt for malen av  Weerstation Leuven

Du finner vår vær info også på:

UK Metoffice

European Weather Network

WeatherCloud

Weather Underground

Utstyr vi bruker:

Værstsjon
Davis VP2

Værprogram
Weather Display

Davis VP2

Weather Display